createdAt,value
2023-10-26T00:01:29.420Z,16.64
2023-10-26T00:04:06.613Z,17.11
2023-10-26T00:06:35.285Z,17.47
2023-10-26T00:09:03.108Z,16.54
2023-10-26T00:11:32.273Z,17.17
2023-10-26T00:13:59.993Z,17.79
2023-10-26T00:16:29.305Z,18.06
2023-10-26T00:18:57.401Z,17.22
2023-10-26T00:21:25.356Z,15.74
2023-10-26T00:23:53.104Z,17.74
2023-10-26T00:26:21.326Z,16.64
2023-10-26T00:28:48.987Z,16.57
2023-10-26T00:31:16.616Z,19.68
2023-10-26T00:33:46.428Z,16.58
2023-10-26T00:36:14.288Z,17.12
2023-10-26T00:38:42.021Z,16.63
2023-10-26T00:41:10.313Z,17.81
2023-10-26T00:43:38.021Z,18.29
2023-10-26T00:46:12.309Z,18.23
2023-10-26T00:48:40.594Z,18.47
2023-10-26T00:51:09.859Z,16.93
2023-10-26T00:53:38.342Z,16.78
2023-10-26T00:56:07.287Z,15.45
2023-10-26T00:58:35.326Z,16.45
2023-10-26T01:01:03.242Z,16.09
2023-10-26T01:03:32.353Z,16.80
2023-10-26T01:06:00.413Z,15.46
2023-10-26T01:08:30.357Z,16.80
2023-10-26T01:10:59.074Z,15.40
2023-10-26T01:13:27.378Z,15.26
2023-10-26T01:15:55.109Z,16.38
2023-10-26T01:18:23.462Z,15.34
2023-10-26T01:20:51.291Z,15.51
2023-10-26T01:23:21.363Z,15.66
2023-10-26T01:25:53.554Z,16.03
2023-10-26T01:28:21.455Z,15.61
2023-10-26T01:30:49.144Z,15.80
2023-10-26T01:33:17.461Z,16.54
2023-10-26T01:35:47.152Z,17.23
2023-10-26T01:38:15.372Z,15.92
2023-10-26T01:40:45.397Z,16.85
2023-10-26T01:43:13.106Z,16.65
2023-10-26T01:45:41.390Z,15.78
2023-10-26T01:48:09.129Z,15.15
2023-10-26T01:50:38.436Z,15.42
2023-10-26T01:53:07.278Z,15.98
2023-10-26T01:55:35.417Z,15.47
2023-10-26T01:58:04.554Z,15.66
2023-10-26T02:00:32.411Z,17.27
2023-10-26T02:03:00.184Z,16.65
2023-10-26T02:05:29.525Z,15.31
2023-10-26T02:07:57.242Z,15.20
2023-10-26T02:10:30.456Z,15.88
2023-10-26T02:13:16.355Z,15.59
2023-10-26T02:15:44.416Z,15.22
2023-10-26T02:18:12.184Z,16.52
2023-10-26T02:20:40.446Z,16.34
2023-10-26T02:23:08.305Z,16.59
2023-10-26T02:25:36.455Z,16.03
2023-10-26T02:28:03.697Z,16.29
2023-10-26T02:30:33.468Z,15.76
2023-10-26T02:33:01.261Z,18.14
2023-10-26T02:35:29.444Z,15.31
2023-10-26T02:40:42.462Z,17.68
2023-10-26T02:43:10.204Z,16.22
2023-10-26T02:45:40.560Z,14.55
2023-10-26T02:48:07.518Z,16.33
2023-10-26T02:50:36.587Z,15.24
2023-10-26T02:53:04.466Z,17.66
2023-10-26T02:55:32.135Z,15.26
2023-10-26T02:58:00.505Z,15.37
2023-10-26T03:00:28.285Z,16.71
2023-10-26T03:02:58.638Z,16.02
2023-10-26T03:05:26.461Z,16.37
2023-10-26T03:07:55.512Z,15.15
2023-10-26T03:10:24.134Z,14.67
2023-10-26T03:12:52.494Z,15.02
2023-10-26T03:15:20.280Z,17.50
2023-10-26T03:17:48.504Z,16.63
2023-10-26T03:20:17.709Z,17.23
2023-10-26T03:22:45.527Z,15.96
2023-10-26T03:25:15.387Z,15.66
2023-10-26T03:27:43.515Z,17.40
2023-10-26T03:30:12.010Z,15.35
2023-10-26T03:32:40.552Z,17.22
2023-10-26T03:35:09.817Z,16.59
2023-10-26T03:37:39.226Z,16.05
2023-10-26T03:40:08.559Z,16.38
2023-10-26T03:42:37.282Z,18.21
2023-10-26T03:45:05.626Z,16.63
2023-10-26T03:47:33.467Z,18.45
2023-10-26T03:50:01.587Z,16.07
2023-10-26T03:52:29.304Z,15.62
2023-10-26T03:54:58.693Z,16.47
2023-10-26T03:57:26.372Z,16.05
2023-10-26T03:59:54.606Z,14.60
2023-10-26T04:02:22.288Z,16.58
2023-10-26T04:04:51.348Z,15.96
2023-10-26T04:07:20.548Z,16.95
2023-10-26T04:09:48.221Z,18.04
2023-10-26T04:12:18.601Z,15.84
2023-10-26T04:14:46.446Z,16.90
2023-10-26T04:17:16.564Z,16.46
2023-10-26T04:19:44.297Z,16.85
2023-10-26T04:22:12.561Z,16.33
2023-10-26T04:24:40.272Z,18.06
2023-10-26T04:27:08.584Z,16.45
2023-10-26T04:29:37.785Z,16.61
2023-10-26T04:32:06.861Z,16.72
2023-10-26T04:34:34.618Z,17.57
2023-10-26T04:37:02.610Z,17.07
2023-10-26T04:39:30.327Z,17.55
2023-10-26T04:41:58.658Z,18.11
2023-10-26T04:44:26.371Z,16.40
2023-10-26T04:46:55.499Z,16.94
2023-10-26T04:49:23.634Z,17.13
2023-10-26T04:51:51.341Z,15.87
2023-10-26T04:54:20.701Z,16.40
2023-10-26T04:56:48.699Z,17.70
2023-10-26T04:59:16.642Z,15.41
2023-10-26T05:01:44.940Z,16.56
2023-10-26T05:04:14.637Z,17.60
2023-10-26T05:06:42.396Z,17.51
2023-10-26T05:09:11.345Z,17.77
2023-10-26T05:11:39.050Z,16.46
2023-10-26T05:14:08.649Z,17.02
2023-10-26T05:16:36.413Z,18.26
2023-10-26T05:19:04.215Z,18.00
2023-10-26T05:21:34.906Z,18.62
2023-10-26T05:24:02.823Z,17.53
2023-10-26T05:26:30.673Z,17.30
2023-10-26T05:28:58.376Z,17.32
2023-10-26T05:31:26.690Z,17.25
2023-10-26T05:33:54.500Z,16.75
2023-10-26T05:36:22.722Z,18.15
2023-10-26T05:38:53.120Z,19.06
2023-10-26T05:41:20.808Z,18.19
2023-10-26T05:43:48.521Z,19.42
2023-10-26T05:46:16.729Z,17.56
2023-10-26T05:48:44.492Z,18.42
2023-10-26T05:51:12.202Z,18.34
2023-10-26T05:53:40.956Z,18.77
2023-10-26T05:56:11.802Z,18.56
2023-10-26T05:58:39.533Z,18.64
2023-10-26T06:01:07.686Z,19.54
2023-10-26T06:03:35.448Z,19.88
2023-10-26T06:06:04.782Z,20.12
2023-10-26T06:08:32.497Z,19.24
2023-10-26T06:11:00.699Z,18.17
2023-10-26T06:13:29.804Z,17.66
2023-10-26T06:15:57.540Z,18.23
2023-10-26T06:18:25.779Z,18.65
2023-10-26T06:20:59.498Z,19.03
2023-10-26T06:23:29.851Z,18.30
2023-10-26T06:26:01.315Z,18.48
2023-10-26T06:28:32.109Z,19.82
2023-10-26T06:31:11.393Z,19.02
2023-10-26T06:33:40.772Z,20.00
2023-10-26T06:36:11.752Z,17.97
2023-10-26T06:38:40.743Z,19.75
2023-10-26T06:41:09.961Z,17.68
2023-10-26T06:43:39.988Z,16.74
2023-10-26T06:46:08.054Z,18.04
2023-10-26T06:48:36.803Z,19.90
2023-10-26T06:51:06.952Z,18.46
2023-10-26T06:53:35.997Z,20.60
2023-10-26T06:56:03.946Z,20.29
2023-10-26T06:58:31.636Z,20.38
2023-10-26T07:01:19.693Z,18.94
2023-10-26T07:03:49.046Z,20.76
2023-10-26T07:06:17.774Z,20.18
2023-10-26T07:08:46.679Z,18.61
2023-10-26T07:11:14.808Z,19.93
2023-10-26T07:13:42.540Z,19.93
2023-10-26T07:16:11.810Z,18.36
2023-10-26T07:18:40.333Z,20.03
2023-10-26T07:21:08.794Z,19.59
2023-10-26T07:23:37.806Z,17.90
2023-10-26T07:26:06.086Z,19.31
2023-10-26T07:28:34.791Z,19.55
2023-10-26T07:31:02.542Z,19.14
2023-10-26T07:33:31.847Z,19.38
2023-10-26T07:36:00.146Z,18.91
2023-10-26T07:38:35.990Z,17.29
2023-10-26T07:41:07.296Z,20.02
2023-10-26T07:43:35.357Z,20.42
2023-10-26T07:46:03.290Z,20.58
2023-10-26T07:48:33.861Z,19.84
2023-10-26T07:51:01.672Z,21.13
2023-10-26T07:53:30.850Z,18.40
2023-10-26T07:55:58.883Z,18.57
2023-10-26T07:58:27.994Z,18.58
2023-10-26T08:00:55.782Z,18.73
2023-10-26T08:03:26.135Z,19.28
2023-10-26T08:05:59.034Z,17.89
2023-10-26T08:08:26.951Z,18.60
2023-10-26T08:10:55.004Z,19.38
2023-10-26T08:13:23.868Z,19.38
2023-10-26T08:16:36.902Z,20.72
2023-10-26T08:18:39.951Z,18.61
2023-10-26T08:21:09.155Z,17.37
2023-10-26T08:23:36.856Z,18.86
2023-10-26T08:26:08.908Z,16.79
2023-10-26T08:28:37.206Z,17.17
2023-10-26T08:31:23.940Z,19.07
2023-10-26T08:33:52.105Z,18.18
2023-10-26T08:36:21.908Z,18.22
2023-10-26T08:38:49.607Z,20.17
2023-10-26T08:41:17.915Z,19.04
2023-10-26T08:43:45.644Z,18.58
2023-10-26T08:46:13.926Z,19.72
2023-10-26T08:48:43.415Z,19.04
2023-10-26T08:51:11.911Z,17.70
2023-10-26T08:53:42.037Z,21.56
2023-10-26T08:56:10.691Z,20.68
2023-10-26T08:58:38.978Z,18.73
2023-10-26T09:01:07.734Z,21.60
2023-10-26T09:03:37.062Z,22.63
2023-10-26T09:06:06.118Z,21.00
2023-10-26T09:08:34.185Z,19.38
2023-10-26T09:11:05.915Z,20.00
2023-10-26T09:13:34.361Z,19.32
2023-10-26T09:16:02.090Z,18.76
2023-10-26T09:18:29.963Z,20.91
2023-10-26T09:21:22.729Z,18.60
2023-10-26T09:23:50.951Z,20.69
2023-10-26T09:26:21.648Z,19.44
2023-10-26T09:28:50.999Z,18.10
2023-10-26T09:31:19.675Z,18.47
2023-10-26T09:33:48.040Z,17.56
2023-10-26T09:36:37.188Z,19.00
2023-10-26T09:41:52.726Z,21.23
2023-10-26T09:44:21.978Z,18.87
2023-10-26T09:46:59.194Z,19.15
2023-10-26T09:49:29.005Z,19.67
2023-10-26T09:51:59.822Z,19.53
2023-10-26T09:54:31.014Z,19.18
2023-10-26T09:57:23.452Z,20.03
2023-10-26T09:59:56.389Z,19.56
2023-10-26T10:02:25.520Z,21.39
2023-10-26T10:04:53.984Z,21.09
2023-10-26T10:07:46.325Z,21.02
2023-10-26T10:10:15.006Z,22.10
2023-10-26T10:12:43.944Z,19.15
2023-10-26T10:15:36.186Z,20.54
2023-10-26T10:18:04.062Z,20.16
2023-10-26T10:20:33.436Z,22.75
2023-10-26T10:23:04.007Z,21.09
2023-10-26T10:26:08.638Z,22.49
2023-10-26T10:28:56.016Z,21.03
2023-10-26T10:31:42.582Z,22.62
2023-10-26T10:34:15.058Z,20.80
2023-10-26T10:37:11.754Z,22.62
2023-10-26T10:40:16.110Z,22.82
2023-10-26T10:42:48.812Z,21.04
2023-10-26T10:45:18.146Z,19.79
2023-10-26T10:47:48.077Z,20.56
2023-10-26T10:50:17.557Z,21.75
2023-10-26T10:52:47.027Z,20.19
2023-10-26T10:55:20.496Z,21.12
2023-10-26T10:57:57.123Z,20.75
2023-10-26T11:00:25.293Z,20.38
2023-10-26T11:02:58.263Z,21.87
2023-10-26T11:05:40.533Z,20.96
2023-10-26T11:08:09.053Z,21.61
2023-10-26T11:10:38.506Z,18.82
2023-10-26T11:13:07.087Z,21.73
2023-10-26T11:15:35.077Z,20.64
2023-10-26T11:18:06.123Z,20.26
2023-10-26T11:20:41.703Z,22.26
2023-10-26T11:23:26.096Z,19.06
2023-10-26T11:25:55.390Z,22.87
2023-10-26T11:28:36.084Z,21.49
2023-10-26T11:31:03.990Z,22.86
2023-10-26T11:33:34.161Z,20.76
2023-10-26T11:36:02.657Z,21.41
2023-10-26T11:38:33.130Z,19.80
2023-10-26T11:41:02.382Z,21.38
2023-10-26T11:43:34.159Z,20.46
2023-10-26T11:46:04.217Z,21.15
2023-10-26T11:48:35.345Z,20.50
2023-10-26T11:51:07.629Z,20.27
2023-10-26T11:53:37.131Z,20.92
2023-10-26T11:56:06.458Z,20.80
2023-10-26T11:58:37.318Z,20.92
2023-10-26T12:01:06.968Z,22.53
2023-10-26T12:03:37.283Z,19.61
2023-10-26T12:06:05.112Z,19.32
2023-10-26T12:08:33.150Z,19.99
2023-10-26T12:11:01.421Z,21.88
2023-10-26T12:13:31.163Z,21.57
2023-10-26T12:15:59.036Z,20.09
2023-10-26T12:18:28.129Z,20.42
2023-10-26T12:20:56.173Z,19.80
2023-10-26T12:23:24.000Z,21.08
2023-10-26T12:25:52.170Z,21.38
2023-10-26T12:28:24.675Z,21.23
2023-10-26T12:30:59.322Z,21.80
2023-10-26T12:33:28.822Z,22.17
2023-10-26T12:35:56.645Z,21.67
2023-10-26T12:38:25.197Z,22.94
2023-10-26T12:40:52.943Z,20.12
2023-10-26T12:43:21.202Z,20.53
2023-10-26T12:45:49.112Z,21.57
2023-10-26T12:48:18.198Z,21.58
2023-10-26T12:51:20.553Z,20.92
2023-10-26T12:53:49.203Z,21.64
2023-10-26T12:56:17.059Z,22.39
2023-10-26T12:58:45.214Z,23.05
2023-10-26T13:01:13.097Z,22.33
2023-10-26T13:03:43.254Z,23.43
2023-10-26T13:06:10.919Z,24.38
2023-10-26T13:08:38.574Z,23.00
2023-10-26T13:11:07.272Z,20.15
2023-10-26T13:13:35.207Z,22.66
2023-10-26T13:16:03.268Z,22.75
2023-10-26T13:18:30.987Z,21.24
2023-10-26T13:21:00.244Z,22.79
2023-10-26T13:23:27.926Z,20.61
2023-10-26T13:25:56.847Z,21.11
2023-10-26T13:28:25.461Z,22.83
2023-10-26T13:30:53.290Z,21.10
2023-10-26T13:33:22.140Z,22.94
2023-10-26T13:35:50.276Z,22.60
2023-10-26T13:38:19.336Z,23.77
2023-10-26T13:40:47.302Z,24.26
2023-10-26T13:43:17.062Z,22.99
2023-10-26T13:45:45.403Z,23.20
2023-10-26T13:48:14.719Z,22.68
2023-10-26T13:50:44.511Z,24.85
2023-10-26T13:53:14.429Z,24.03
2023-10-26T13:55:43.471Z,23.26
2023-10-26T13:58:12.575Z,22.49
2023-10-26T14:00:40.858Z,23.34
2023-10-26T14:03:09.310Z,24.82
2023-10-26T14:05:38.562Z,23.34
2023-10-26T14:08:07.322Z,24.45
2023-10-26T14:10:55.520Z,23.63
2023-10-26T14:13:23.354Z,22.55
2023-10-26T14:15:51.336Z,23.67
2023-10-26T14:18:19.017Z,22.17
2023-10-26T14:20:48.388Z,21.88
2023-10-26T14:23:16.075Z,23.75
2023-10-26T14:25:45.347Z,23.62
2023-10-26T14:28:14.440Z,22.65
2023-10-26T14:30:42.496Z,22.91
2023-10-26T14:33:10.568Z,24.71
2023-10-26T14:35:39.400Z,22.94
2023-10-26T14:38:09.482Z,23.15
2023-10-26T14:40:38.407Z,23.73
2023-10-26T14:43:06.159Z,22.97
2023-10-26T14:45:36.407Z,23.89
2023-10-26T14:48:04.643Z,22.40
2023-10-26T14:50:32.895Z,21.63
2023-10-26T14:53:01.393Z,21.64
2023-10-26T14:55:29.362Z,22.20
2023-10-26T14:57:57.417Z,23.49
2023-10-26T15:00:25.103Z,20.25
2023-10-26T15:02:55.412Z,21.24
2023-10-26T15:05:23.700Z,22.93
2023-10-26T15:07:52.418Z,20.40
2023-10-26T15:10:26.535Z,22.72
2023-10-26T15:12:57.804Z,24.22
2023-10-26T15:15:26.686Z,23.71
2023-10-26T15:17:55.775Z,23.35
2023-10-26T15:20:24.425Z,24.73
2023-10-26T15:22:52.091Z,21.92
2023-10-26T15:25:20.446Z,22.35
2023-10-26T15:27:48.211Z,22.12
2023-10-26T15:30:16.469Z,22.89
2023-10-26T15:32:45.296Z,23.65
2023-10-26T15:35:14.433Z,23.12
2023-10-26T15:37:42.454Z,22.60
2023-10-26T15:40:13.119Z,23.90
2023-10-26T15:42:41.732Z,23.94
2023-10-26T15:45:10.061Z,23.60
2023-10-26T15:47:38.042Z,22.08
2023-10-26T15:50:07.549Z,23.11
2023-10-26T15:52:36.826Z,21.91
2023-10-26T15:55:05.518Z,22.32
2023-10-26T15:57:34.429Z,22.09
2023-10-26T16:00:07.523Z,23.14
2023-10-26T16:02:35.501Z,21.27
2023-10-26T16:05:03.421Z,20.57
2023-10-26T16:07:31.492Z,20.46
2023-10-26T16:10:01.540Z,22.00
2023-10-26T16:12:29.442Z,22.36
2023-10-26T16:14:57.496Z,21.99
2023-10-26T16:17:25.976Z,21.41
2023-10-26T16:19:54.518Z,21.38
2023-10-26T16:22:22.169Z,19.92
2023-10-26T16:24:52.394Z,20.37
2023-10-26T16:27:22.548Z,22.23
2023-10-26T16:29:51.342Z,21.40
2023-10-26T16:32:23.537Z,21.28
2023-10-26T16:34:51.168Z,22.50
2023-10-26T16:37:19.615Z,21.74
2023-10-26T16:39:47.336Z,23.02
2023-10-26T16:42:15.552Z,23.62
2023-10-26T16:44:44.635Z,21.42
2023-10-26T16:47:12.544Z,22.12
2023-10-26T16:49:40.158Z,23.05
2023-10-26T16:52:08.598Z,22.08
2023-10-26T16:54:36.373Z,22.81
2023-10-26T16:57:08.571Z,23.15
2023-10-26T16:59:36.352Z,22.80
2023-10-26T17:02:06.545Z,22.14
2023-10-26T17:04:34.216Z,19.30
2023-10-26T17:07:02.711Z,22.65
2023-10-26T17:09:31.057Z,21.36
2023-10-26T17:11:59.713Z,22.02
2023-10-26T17:14:27.501Z,21.32
2023-10-26T17:16:55.590Z,19.37
2023-10-26T17:19:26.160Z,20.85
2023-10-26T17:21:54.594Z,20.77
2023-10-26T17:24:22.288Z,19.62
2023-10-26T17:26:50.877Z,20.58
2023-10-26T17:29:19.600Z,18.10
2023-10-26T17:31:47.309Z,20.11
2023-10-26T17:34:15.583Z,20.03
2023-10-26T17:36:44.696Z,20.66
2023-10-26T17:39:12.651Z,20.50
2023-10-26T17:41:40.616Z,19.91
2023-10-26T17:44:08.533Z,21.18
2023-10-26T17:46:36.717Z,20.71
2023-10-26T17:49:04.616Z,21.22
2023-10-26T17:51:35.615Z,21.26
2023-10-26T17:56:34.283Z,21.14
2023-10-26T17:59:02.623Z,18.99
2023-10-26T18:01:30.661Z,19.33
2023-10-26T18:03:58.575Z,20.73
2023-10-26T18:06:28.642Z,21.19
2023-10-26T18:08:56.462Z,22.07
2023-10-26T18:11:25.670Z,21.58
2023-10-26T18:13:53.712Z,21.58
2023-10-26T18:16:21.771Z,22.41
2023-10-26T18:18:49.721Z,20.47
2023-10-26T18:21:17.727Z,21.94
2023-10-26T18:24:08.124Z,21.93
2023-10-26T18:26:37.687Z,22.35
2023-10-26T18:29:05.829Z,22.61
2023-10-26T18:31:33.801Z,22.49
2023-10-26T18:34:01.467Z,22.28
2023-10-26T18:36:29.748Z,22.64
2023-10-26T18:38:57.588Z,22.88
2023-10-26T18:41:26.733Z,22.21
2023-10-26T18:43:56.268Z,20.91
2023-10-26T18:46:25.731Z,21.58
2023-10-26T18:48:53.501Z,21.68
2023-10-26T18:51:24.696Z,22.68
2023-10-26T18:53:52.832Z,22.64
2023-10-26T18:56:22.715Z,23.40
2023-10-26T18:58:50.392Z,22.31
2023-10-26T19:01:19.860Z,22.36
2023-10-26T19:04:01.259Z,22.33
2023-10-26T19:09:43.859Z,22.44
2023-10-26T19:12:12.224Z,21.74
2023-10-26T19:14:39.918Z,22.53
2023-10-26T19:17:10.739Z,21.78
2023-10-26T19:19:38.657Z,21.37
2023-10-26T19:22:06.782Z,21.33
2023-10-26T19:24:34.759Z,21.69
2023-10-26T19:27:02.423Z,21.84
2023-10-26T19:29:30.998Z,20.52
2023-10-26T19:31:58.749Z,20.41
2023-10-26T19:34:28.758Z,20.26
2023-10-26T19:36:56.517Z,21.23
2023-10-26T19:39:24.785Z,21.81
2023-10-26T19:41:52.681Z,21.36
2023-10-26T19:44:20.764Z,20.13
2023-10-26T19:46:48.761Z,20.82
2023-10-26T19:49:16.812Z,21.01
2023-10-26T19:51:45.963Z,20.00
2023-10-26T19:54:14.806Z,21.37
2023-10-26T19:56:42.535Z,21.74
2023-10-26T19:59:10.792Z,21.04
2023-10-26T20:01:40.147Z,20.69
2023-10-26T20:04:08.805Z,20.72
2023-10-26T20:06:36.522Z,19.95
2023-10-26T20:09:07.787Z,20.19
2023-10-26T20:11:36.349Z,20.78
2023-10-26T20:14:04.213Z,20.78
2023-10-26T20:16:32.838Z,21.45
2023-10-26T20:19:01.601Z,20.61
2023-10-26T20:21:30.798Z,20.07
2023-10-26T20:23:58.522Z,20.75
2023-10-26T20:26:27.811Z,21.63
2023-10-26T20:28:56.205Z,20.90
2023-10-26T20:31:24.076Z,20.67
2023-10-26T20:33:52.875Z,20.75
2023-10-26T20:36:21.878Z,20.96
2023-10-26T20:38:49.622Z,21.23
2023-10-26T20:41:17.841Z,21.60
2023-10-26T20:43:48.797Z,21.36
2023-10-26T20:46:17.883Z,21.27
2023-10-26T20:48:45.662Z,21.57
2023-10-26T20:51:14.766Z,20.56
2023-10-26T20:53:42.870Z,21.44
2023-10-26T20:56:10.769Z,20.86
2023-10-26T20:58:38.709Z,21.38
2023-10-26T21:01:13.144Z,21.58
2023-10-26T21:03:41.822Z,22.17
2023-10-26T21:06:11.868Z,21.49
2023-10-26T21:08:39.745Z,22.06
2023-10-26T21:11:14.890Z,21.45
2023-10-26T21:13:42.658Z,22.10
2023-10-26T21:16:12.002Z,21.14
2023-10-26T21:18:39.768Z,22.42
2023-10-26T21:21:08.887Z,21.43
2023-10-26T21:23:37.265Z,22.46
2023-10-26T21:26:06.957Z,22.48
2023-10-26T21:28:35.147Z,22.28
2023-10-26T21:31:03.013Z,22.18
2023-10-26T21:33:32.921Z,20.76
2023-10-26T21:36:00.639Z,19.64
2023-10-26T21:38:28.940Z,19.98
2023-10-26T21:40:56.758Z,21.65
2023-10-26T21:43:25.952Z,22.12
2023-10-26T21:45:53.687Z,22.16
2023-10-26T21:48:23.107Z,20.99
2023-10-26T21:50:52.948Z,20.62
2023-10-26T21:53:20.613Z,22.16
2023-10-26T21:55:48.989Z,22.40
2023-10-26T21:58:16.736Z,22.72
2023-10-26T22:00:45.099Z,20.89
2023-10-26T22:03:12.860Z,21.01
2023-10-26T22:05:40.952Z,21.81
2023-10-26T22:08:10.198Z,21.54
2023-10-26T22:10:39.010Z,21.84
2023-10-26T22:13:07.170Z,21.70
2023-10-26T22:15:35.047Z,22.02
2023-10-26T22:18:02.837Z,22.16
2023-10-26T22:20:30.630Z,21.96
2023-10-26T22:22:58.974Z,21.16
2023-10-26T22:25:28.186Z,21.42
2023-10-26T22:27:56.028Z,20.44
2023-10-26T22:30:23.818Z,20.73
2023-10-26T22:32:52.016Z,20.06
2023-10-26T22:35:19.790Z,20.86
2023-10-26T22:37:48.010Z,21.46
2023-10-26T22:40:15.868Z,20.29
2023-10-26T22:42:45.194Z,20.07
2023-10-26T22:48:11.044Z,20.69
2023-10-26T22:50:38.748Z,21.24
2023-10-26T22:53:07.186Z,20.72
2023-10-26T22:55:36.057Z,21.25
2023-10-26T22:58:08.201Z,20.60
2023-10-26T23:00:38.043Z,21.21
2023-10-26T23:03:06.223Z,21.28
2023-10-26T23:05:35.004Z,19.81
2023-10-26T23:08:04.905Z,18.25
2023-10-26T23:10:32.844Z,18.74
2023-10-26T23:13:01.343Z,19.64
2023-10-26T23:15:30.475Z,20.60
2023-10-26T23:17:59.172Z,20.79
2023-10-26T23:20:27.056Z,21.35
2023-10-26T23:22:55.050Z,21.58
2023-10-26T23:25:24.425Z,21.26
2023-10-26T23:27:52.269Z,19.96
2023-10-26T23:30:21.096Z,19.62
2023-10-26T23:32:51.859Z,20.04
2023-10-26T23:35:19.727Z,19.89
2023-10-26T23:37:48.075Z,18.18
2023-10-26T23:40:15.915Z,17.73
2023-10-26T23:42:44.226Z,19.89
2023-10-26T23:45:12.134Z,19.97
2023-10-26T23:47:40.114Z,18.53
2023-10-26T23:50:10.328Z,19.41
2023-10-26T23:52:40.149Z,19.62
2023-10-26T23:55:08.456Z,18.93
2023-10-26T23:57:37.090Z,19.24
